createdAt,value
2017-11-20T00:00:36.566Z,11.73
2017-11-20T00:03:03.486Z,3.10
2017-11-20T00:05:31.156Z,4.68
2017-11-20T00:07:58.833Z,4.95
2017-11-20T00:10:25.752Z,5.47
2017-11-20T00:12:53.874Z,15.00
2017-11-20T00:15:20.981Z,6.57
2017-11-20T00:17:48.676Z,5.90
2017-11-20T00:20:15.600Z,10.32
2017-11-20T00:22:43.294Z,5.10
2017-11-20T00:25:10.229Z,2.15
2017-11-20T00:27:37.609Z,3.90
2017-11-20T00:30:04.543Z,6.82
2017-11-20T00:32:31.479Z,4.53
2017-11-20T00:34:58.380Z,1.37
2017-11-20T00:37:26.066Z,3.00
2017-11-20T00:39:52.975Z,3.33
2017-11-20T00:42:19.891Z,8.77
2017-11-20T00:44:47.397Z,6.28
2017-11-20T00:47:14.355Z,4.22
2017-11-20T00:49:41.261Z,4.03
2017-11-20T00:52:08.190Z,3.33
2017-11-20T00:54:35.098Z,4.25
2017-11-20T00:57:02.008Z,1.33
2017-11-20T00:59:29.683Z,2.15
2017-11-20T01:01:57.373Z,7.87
2017-11-20T01:04:24.284Z,4.55
2017-11-20T01:06:51.216Z,5.68
2017-11-20T01:09:18.885Z,2.25
2017-11-20T01:11:46.584Z,9.35
2017-11-20T01:14:13.681Z,11.05
2017-11-20T01:16:40.598Z,5.87
2017-11-20T01:19:07.491Z,2.30
2017-11-20T01:21:35.186Z,1.45
2017-11-20T01:24:02.086Z,11.80
2017-11-20T01:26:29.827Z,4.50
2017-11-20T01:28:56.739Z,4.50
2017-11-20T01:31:23.667Z,8.07
2017-11-20T01:33:50.569Z,8.27
2017-11-20T01:36:17.522Z,3.25
2017-11-20T01:38:45.249Z,2.37
2017-11-20T01:41:12.153Z,7.25
2017-11-20T01:43:39.078Z,3.72
2017-11-20T01:46:06.775Z,5.40
2017-11-20T01:48:34.604Z,9.90
2017-11-20T01:51:02.283Z,3.60
2017-11-20T01:53:29.967Z,2.80
2017-11-20T01:55:56.890Z,4.50
2017-11-20T01:58:23.792Z,2.42
2017-11-20T02:00:50.719Z,4.95
2017-11-20T02:03:17.627Z,7.30
2017-11-20T02:05:44.558Z,4.43
2017-11-20T02:08:12.241Z,11.05
2017-11-20T02:10:39.166Z,6.70
2017-11-20T02:13:06.837Z,4.10
2017-11-20T02:15:34.666Z,8.88
2017-11-20T02:18:01.570Z,6.32
2017-11-20T02:20:28.489Z,3.95
2017-11-20T02:22:55.404Z,5.03
2017-11-20T02:25:22.318Z,2.47
2017-11-20T02:27:49.240Z,9.13
2017-11-20T02:30:16.185Z,5.00
2017-11-20T02:32:44.117Z,9.00
2017-11-20T02:35:11.804Z,1.98
2017-11-20T02:37:39.645Z,8.88
2017-11-20T02:40:07.369Z,11.18
2017-11-20T02:42:34.330Z,4.55
2017-11-20T02:45:01.232Z,15.13
2017-11-20T02:47:28.146Z,5.18
2017-11-20T02:49:55.845Z,4.15
2017-11-20T02:52:22.782Z,12.30
2017-11-20T02:54:49.711Z,6.75
2017-11-20T02:57:16.612Z,10.25
2017-11-20T02:59:43.523Z,5.00
2017-11-20T03:02:10.446Z,6.70
2017-11-20T03:04:37.367Z,3.92
2017-11-20T03:07:05.385Z,10.57
2017-11-20T03:09:32.354Z,6.12
2017-11-20T03:11:59.272Z,16.37
2017-11-20T03:14:26.229Z,7.62
2017-11-20T03:16:53.709Z,15.15
2017-11-20T03:19:21.382Z,12.65
2017-11-20T03:21:48.311Z,10.43
2017-11-20T03:24:15.327Z,9.63
2017-11-20T03:26:42.259Z,11.73
2017-11-20T03:29:09.193Z,13.88
2017-11-20T03:31:36.110Z,12.68
2017-11-20T03:34:04.809Z,7.82
2017-11-20T03:36:32.482Z,9.18
2017-11-20T03:38:59.386Z,5.28
2017-11-20T03:41:26.311Z,9.07
2017-11-20T03:43:53.216Z,8.10
2017-11-20T03:46:20.133Z,12.43
2017-11-20T03:48:47.794Z,7.68
2017-11-20T03:51:14.724Z,5.87
2017-11-20T03:53:43.652Z,15.48
2017-11-20T03:56:11.503Z,8.30
2017-11-20T03:58:39.185Z,18.75
2017-11-20T04:01:06.102Z,3.35
2017-11-20T04:03:33.785Z,9.05
2017-11-20T04:06:00.721Z,6.70
2017-11-20T04:08:28.402Z,11.18
2017-11-20T04:10:55.304Z,6.18
2017-11-20T04:13:22.511Z,5.75
2017-11-20T04:15:49.416Z,12.43
2017-11-20T04:18:17.121Z,15.50
2017-11-20T04:20:44.368Z,10.23
2017-11-20T04:23:11.285Z,13.07
2017-11-20T04:25:38.214Z,9.35
2017-11-20T04:28:06.930Z,13.10
2017-11-20T04:30:33.900Z,9.60
2017-11-20T04:33:01.815Z,8.80
2017-11-20T04:35:29.510Z,9.68
2017-11-20T04:37:56.870Z,5.90
2017-11-20T04:40:23.786Z,7.20
2017-11-20T04:42:51.481Z,8.40
2017-11-20T04:45:18.402Z,13.70
2017-11-20T04:47:46.241Z,9.40
2017-11-20T04:50:13.941Z,14.75
2017-11-20T04:52:41.772Z,9.68
2017-11-20T04:55:09.440Z,10.75
2017-11-20T04:57:37.121Z,14.35
2017-11-20T05:00:04.046Z,13.05
2017-11-20T05:02:31.744Z,13.18
2017-11-20T05:04:58.658Z,7.20
2017-11-20T05:07:26.351Z,9.55
2017-11-20T05:09:53.768Z,14.43
2017-11-20T05:12:21.879Z,14.77
2017-11-20T05:14:48.795Z,13.85
2017-11-20T05:17:15.712Z,11.23
2017-11-20T05:19:42.635Z,7.50
2017-11-20T05:22:09.536Z,18.40
2017-11-20T05:24:36.462Z,8.85
2017-11-20T05:27:04.141Z,8.23
2017-11-20T05:29:31.055Z,19.20
2017-11-20T05:31:57.965Z,11.73
2017-11-20T05:34:24.882Z,25.15
2017-11-20T05:36:51.784Z,10.75
2017-11-20T05:39:18.700Z,3.95
2017-11-20T05:41:45.610Z,12.77
2017-11-20T05:44:12.536Z,25.80
2017-11-20T05:46:40.217Z,13.77
2017-11-20T05:49:07.139Z,13.80
2017-11-20T05:51:34.812Z,17.62
2017-11-20T05:54:02.505Z,11.68
2017-11-20T05:56:31.350Z,13.93
2017-11-20T05:58:59.039Z,10.77
2017-11-20T06:01:25.946Z,14.87
2017-11-20T06:03:52.864Z,12.75
2017-11-20T06:06:19.765Z,20.42
2017-11-20T06:08:46.693Z,20.92
2017-11-20T06:11:14.373Z,15.82
2017-11-20T06:13:41.287Z,9.82
2017-11-20T06:16:08.198Z,12.43
2017-11-20T06:18:35.132Z,12.23
2017-11-20T06:21:02.050Z,14.40
2017-11-20T06:23:28.982Z,8.32
2017-11-20T06:25:55.910Z,13.62
2017-11-20T06:28:23.606Z,15.10
2017-11-20T06:30:50.523Z,10.82
2017-11-20T06:33:18.221Z,17.35
2017-11-20T06:35:45.130Z,19.45
2017-11-20T06:38:12.822Z,13.75
2017-11-20T06:40:39.733Z,16.15
2017-11-20T06:43:06.677Z,12.77
2017-11-20T06:45:34.369Z,16.70
2017-11-20T06:48:01.284Z,13.85
2017-11-20T06:50:29.982Z,19.92
2017-11-20T06:52:56.916Z,15.52
2017-11-20T06:55:24.595Z,14.27
2017-11-20T06:57:51.534Z,21.33
2017-11-20T07:00:19.196Z,17.75
2017-11-20T07:02:46.897Z,12.23
2017-11-20T07:05:13.787Z,16.83
2017-11-20T07:07:42.489Z,12.45
2017-11-20T07:10:10.175Z,21.02
2017-11-20T07:12:37.084Z,5.53
2017-11-20T07:15:04.744Z,17.08
2017-11-20T07:17:32.429Z,13.93
2017-11-20T07:20:01.303Z,18.27
2017-11-20T07:22:28.992Z,15.02
2017-11-20T07:24:55.893Z,6.68
2017-11-20T07:27:34.629Z,10.80
2017-11-20T07:30:14.259Z,10.48
2017-11-20T07:32:41.981Z,9.13
2017-11-20T07:35:14.969Z,15.18
2017-11-20T07:37:53.778Z,18.30
2017-11-20T07:40:20.715Z,13.00
2017-11-20T07:42:48.567Z,11.75
2017-11-20T07:45:17.433Z,10.43
2017-11-20T07:47:45.121Z,7.47
2017-11-20T07:50:12.034Z,9.18
2017-11-20T07:52:39.727Z,7.87
2017-11-20T07:55:06.627Z,17.35
2017-11-20T07:57:33.545Z,6.90
2017-11-20T08:00:00.454Z,13.25
2017-11-20T08:02:27.392Z,11.88
2017-11-20T08:04:55.401Z,12.82
2017-11-20T08:07:22.362Z,9.45
2017-11-20T08:09:49.281Z,7.35
2017-11-20T08:12:20.794Z,13.38
2017-11-20T08:14:48.460Z,9.93
2017-11-20T08:17:15.359Z,11.45
2017-11-20T08:19:44.339Z,5.95
2017-11-20T08:22:11.326Z,11.68
2017-11-20T08:24:39.025Z,6.15
2017-11-20T08:27:10.996Z,7.22
2017-11-20T08:29:37.929Z,14.52
2017-11-20T08:32:04.886Z,13.60
2017-11-20T08:34:31.823Z,12.98
2017-11-20T08:36:58.749Z,7.60
2017-11-20T08:39:25.652Z,13.95
2017-11-20T08:41:52.558Z,6.97
2017-11-20T08:44:21.426Z,13.30
2017-11-20T08:46:48.320Z,14.27
2017-11-20T08:49:16.243Z,10.32
2017-11-20T08:51:44.115Z,14.50
2017-11-20T08:54:11.021Z,16.48
2017-11-20T08:56:37.959Z,16.98
2017-11-20T08:59:04.863Z,4.80
2017-11-20T09:01:31.803Z,4.70
2017-11-20T09:03:58.720Z,13.07
2017-11-20T09:06:25.656Z,13.10
2017-11-20T09:08:53.326Z,6.03
2017-11-20T09:11:24.939Z,8.10
2017-11-20T09:13:51.852Z,9.73
2017-11-20T09:16:18.758Z,9.88
2017-11-20T09:18:45.680Z,9.30
2017-11-20T09:21:12.590Z,10.82
2017-11-20T09:23:39.510Z,9.20
2017-11-20T09:26:06.532Z,6.28
2017-11-20T09:28:34.231Z,8.70
2017-11-20T09:31:01.171Z,10.63
2017-11-20T09:33:28.089Z,7.50
2017-11-20T09:35:55.765Z,5.18
2017-11-20T09:38:23.455Z,8.88
2017-11-20T09:40:50.353Z,6.85
2017-11-20T09:43:17.286Z,7.15
2017-11-20T09:45:45.692Z,5.18
2017-11-20T09:48:13.387Z,5.55
2017-11-20T09:50:41.309Z,10.48
2017-11-20T09:53:09.005Z,3.42
2017-11-20T09:55:35.914Z,5.20
2017-11-20T09:58:03.621Z,3.47
2017-11-20T10:00:30.521Z,5.97
2017-11-20T10:02:57.457Z,3.70
2017-11-20T10:05:25.321Z,6.28
2017-11-20T10:07:52.994Z,9.93
2017-11-20T10:10:20.744Z,8.57
2017-11-20T10:12:47.684Z,4.97
2017-11-20T10:15:15.573Z,9.90
2017-11-20T10:17:43.257Z,4.50
2017-11-20T10:20:10.161Z,7.18
2017-11-20T10:22:37.085Z,3.72
2017-11-20T10:25:04.988Z,6.28
2017-11-20T10:27:33.671Z,9.52
2017-11-20T10:30:01.536Z,9.35
2017-11-20T10:32:30.251Z,8.50
2017-11-20T10:34:57.224Z,6.82
2017-11-20T10:37:24.150Z,7.37
2017-11-20T10:39:51.069Z,6.15
2017-11-20T10:42:18.757Z,3.03
2017-11-20T10:44:45.661Z,2.35
2017-11-20T10:47:14.369Z,3.78
2017-11-20T10:49:41.297Z,3.62
2017-11-20T10:52:08.993Z,9.00
2017-11-20T10:54:35.899Z,3.72
2017-11-20T10:57:03.578Z,5.05
2017-11-20T10:59:30.507Z,4.70
2017-11-20T11:01:58.214Z,5.28
2017-11-20T11:04:25.115Z,5.70
2017-11-20T11:06:53.820Z,7.30
2017-11-20T11:09:20.750Z,11.55
2017-11-20T11:11:48.859Z,10.90
2017-11-20T11:14:16.776Z,6.85
2017-11-20T11:16:44.488Z,4.45
2017-11-20T11:19:11.394Z,8.80
2017-11-20T11:21:39.125Z,8.70
2017-11-20T11:24:06.033Z,11.18
2017-11-20T11:26:33.972Z,8.38
2017-11-20T11:29:01.691Z,6.60
2017-11-20T11:31:28.642Z,6.00
2017-11-20T11:33:55.553Z,6.78
2017-11-20T11:36:22.491Z,5.93
2017-11-20T11:38:49.422Z,6.45
2017-11-20T11:41:16.327Z,7.10
2017-11-20T11:43:45.916Z,9.10
2017-11-20T11:46:12.853Z,11.12
2017-11-20T11:48:40.735Z,10.05
2017-11-20T11:51:07.681Z,16.17
2017-11-20T11:53:34.658Z,8.55
2017-11-20T11:56:01.840Z,9.40
2017-11-20T11:58:28.754Z,13.10
2017-11-20T12:00:58.630Z,8.93
2017-11-20T12:03:25.540Z,12.80
2017-11-20T12:05:52.473Z,9.55
2017-11-20T12:08:20.405Z,13.48
2017-11-20T12:10:49.089Z,10.00
2017-11-20T12:13:16.780Z,5.93
2017-11-20T12:15:43.717Z,9.82
2017-11-20T12:18:10.630Z,9.52
2017-11-20T12:20:38.331Z,14.65
2017-11-20T12:23:06.266Z,10.48
2017-11-20T12:25:33.962Z,13.48
2017-11-20T12:28:00.870Z,12.20
2017-11-20T12:30:28.570Z,10.00
2017-11-20T12:32:55.480Z,5.20
2017-11-20T12:35:23.157Z,11.30
2017-11-20T12:37:50.204Z,9.98
2017-11-20T12:40:17.174Z,8.80
2017-11-20T12:42:44.088Z,10.73
2017-11-20T12:45:12.970Z,8.00
2017-11-20T12:47:40.675Z,9.32
2017-11-20T12:50:07.590Z,9.65
2017-11-20T12:52:34.537Z,7.43
2017-11-20T12:55:01.446Z,9.60
2017-11-20T12:57:28.407Z,11.75
2017-11-20T12:59:58.616Z,32.40
2017-11-20T13:02:25.557Z,17.95
2017-11-20T13:04:52.479Z,14.50
2017-11-20T13:07:20.223Z,8.82
2017-11-20T13:09:47.198Z,17.52
2017-11-20T13:12:15.145Z,25.12
2017-11-20T13:14:42.095Z,41.35
2017-11-20T13:17:12.701Z,8.63
2017-11-20T13:19:41.805Z,11.12
2017-11-20T13:22:09.732Z,13.10
2017-11-20T13:24:37.429Z,6.37
2017-11-20T13:27:04.361Z,5.20
2017-11-20T13:29:32.218Z,7.47
2017-11-20T13:31:59.137Z,12.35
2017-11-20T13:34:26.831Z,7.15
2017-11-20T13:36:57.142Z,6.28
2017-11-20T13:39:26.044Z,9.02
2017-11-20T13:41:52.974Z,6.90
2017-11-20T13:44:20.691Z,10.57
2017-11-20T13:46:49.560Z,3.87
2017-11-20T13:49:16.488Z,8.75
2017-11-20T13:51:44.421Z,8.30
2017-11-20T13:54:14.972Z,7.78
2017-11-20T13:56:42.873Z,7.85
2017-11-20T13:59:09.854Z,4.07
2017-11-20T14:01:40.784Z,8.85
2017-11-20T14:04:07.700Z,3.85
2017-11-20T14:06:34.639Z,3.58
2017-11-20T14:09:05.456Z,4.70
2017-11-20T14:11:34.432Z,5.78
2017-11-20T14:14:02.396Z,17.23
2017-11-20T14:16:33.903Z,2.72
2017-11-20T14:19:01.872Z,5.18
2017-11-20T14:21:28.836Z,7.72
2017-11-20T14:23:56.724Z,3.78
2017-11-20T14:26:23.660Z,3.65
2017-11-20T14:28:50.567Z,3.70
2017-11-20T14:31:18.520Z,6.30
2017-11-20T14:33:45.475Z,5.50
2017-11-20T14:36:12.400Z,3.85
2017-11-20T14:38:48.879Z,5.40
2017-11-20T14:41:16.842Z,2.53
2017-11-20T14:43:43.743Z,3.92
2017-11-20T14:46:10.670Z,5.45
2017-11-20T14:48:43.948Z,5.50
2017-11-20T14:54:20.759Z,3.20
2017-11-20T14:56:47.670Z,5.03
2017-11-20T14:59:15.523Z,5.53
2017-11-20T15:01:46.274Z,4.47
2017-11-20T15:04:13.198Z,4.70
2017-11-20T15:06:42.060Z,8.68
2017-11-20T15:09:09.748Z,6.37
2017-11-20T15:11:37.589Z,4.87
2017-11-20T15:14:04.508Z,4.95
2017-11-20T15:16:32.392Z,3.92
2017-11-20T15:19:03.061Z,6.55
2017-11-20T15:21:29.991Z,3.08
2017-11-20T15:23:56.910Z,11.35
2017-11-20T15:26:23.844Z,7.00
2017-11-20T15:28:50.784Z,4.25
2017-11-20T15:31:19.793Z,3.97
2017-11-20T15:33:50.996Z,6.93
2017-11-20T15:36:21.397Z,4.57
2017-11-20T15:38:51.631Z,6.55
2017-11-20T15:41:20.384Z,8.88
2017-11-20T15:43:48.091Z,2.42
2017-11-20T15:46:15.078Z,4.95
2017-11-20T15:48:46.071Z,5.57
2017-11-20T15:51:15.278Z,6.12
2017-11-20T15:53:43.194Z,10.43
2017-11-20T15:56:10.128Z,7.87
2017-11-20T15:58:37.120Z,7.30
2017-11-20T16:01:04.025Z,6.75
2017-11-20T16:03:30.957Z,3.17
2017-11-20T16:05:57.865Z,8.80
2017-11-20T16:08:31.702Z,17.65
2017-11-20T16:10:58.649Z,5.20
2017-11-20T16:13:25.586Z,12.20
2017-11-20T16:15:56.908Z,4.72
2017-11-20T16:18:23.829Z,3.05
2017-11-20T16:20:50.754Z,13.68
2017-11-20T16:23:19.458Z,5.55
2017-11-20T16:25:47.311Z,3.87
2017-11-20T16:28:14.986Z,3.97
2017-11-20T16:30:42.833Z,5.12
2017-11-20T16:33:10.437Z,5.25
2017-11-20T16:35:38.340Z,3.95
2017-11-20T16:38:05.280Z,6.47
2017-11-20T16:40:34.322Z,7.05
2017-11-20T16:43:01.243Z,4.93
2017-11-20T16:45:28.932Z,7.78
2017-11-20T16:47:57.822Z,7.62
2017-11-20T16:50:25.661Z,7.12
2017-11-20T16:52:53.375Z,6.72
2017-11-20T16:55:22.206Z,6.57
2017-11-20T16:58:01.676Z,9.27
2017-11-20T17:00:32.368Z,8.43
2017-11-20T17:03:18.761Z,7.57
2017-11-20T17:05:46.747Z,11.75
2017-11-20T17:08:13.737Z,13.82
2017-11-20T17:10:40.649Z,16.65
2017-11-20T17:13:08.674Z,19.40
2017-11-20T17:15:36.540Z,17.60
2017-11-20T17:18:04.283Z,26.92
2017-11-20T17:20:33.331Z,24.95
2017-11-20T17:23:07.941Z,29.80
2017-11-20T17:25:42.037Z,22.77
2017-11-20T17:28:08.967Z,22.85
2017-11-20T17:30:36.884Z,29.73
2017-11-20T17:33:04.581Z,26.17
2017-11-20T17:35:31.503Z,26.95
2017-11-20T17:37:58.437Z,30.58
2017-11-20T17:40:26.120Z,29.30
2017-11-20T17:42:53.056Z,27.75
2017-11-20T17:45:20.005Z,26.37
2017-11-20T17:47:47.896Z,29.02
2017-11-20T17:50:14.881Z,30.92
2017-11-20T17:52:45.475Z,26.60
2017-11-20T17:55:13.386Z,26.10
2017-11-20T17:57:41.260Z,27.73
2017-11-20T18:00:08.936Z,34.42
2017-11-20T18:02:37.634Z,29.35
2017-11-20T18:05:04.553Z,26.55
2017-11-20T18:07:32.282Z,30.20
2017-11-20T18:09:59.230Z,30.45
2017-11-20T18:12:26.183Z,27.58
2017-11-20T18:14:53.175Z,33.65
2017-11-20T18:17:20.138Z,33.00
2017-11-20T18:19:50.211Z,33.25
2017-11-20T18:22:17.126Z,25.35
2017-11-20T18:24:47.634Z,27.23
2017-11-20T18:27:14.604Z,31.92
2017-11-20T18:29:41.531Z,27.15
2017-11-20T18:32:09.707Z,32.35
2017-11-20T18:34:37.958Z,28.12
2017-11-20T18:37:12.074Z,26.70
2017-11-20T18:39:40.042Z,27.25
2017-11-20T18:42:07.042Z,24.20
2017-11-20T18:44:34.067Z,24.45
2017-11-20T18:47:02.036Z,29.85
2017-11-20T18:49:32.870Z,24.85
2017-11-20T18:52:01.832Z,25.73
2017-11-20T18:54:28.988Z,25.37
2017-11-20T18:56:57.005Z,25.75
2017-11-20T18:59:25.705Z,26.70
2017-11-20T19:02:10.329Z,29.98
2017-11-20T19:04:49.364Z,27.05
2017-11-20T19:07:33.133Z,26.92
2017-11-20T19:10:00.062Z,27.87
2017-11-20T19:12:26.997Z,27.83
2017-11-20T19:14:57.895Z,26.67
2017-11-20T19:17:25.931Z,29.08
2017-11-20T19:19:53.624Z,25.35
2017-11-20T19:22:20.645Z,31.48
2017-11-20T19:24:48.312Z,30.67
2017-11-20T19:27:15.322Z,31.70
2017-11-20T19:29:42.261Z,25.62
2017-11-20T19:32:09.245Z,32.55
2017-11-20T19:34:36.178Z,33.28
2017-11-20T19:37:04.852Z,29.55
2017-11-20T19:39:32.542Z,42.25
2017-11-20T19:42:03.019Z,30.17
2017-11-20T19:44:29.945Z,37.13
2017-11-20T19:46:56.981Z,29.52
2017-11-20T19:49:23.901Z,32.35
2017-11-20T19:51:50.854Z,29.90
2017-11-20T19:54:17.794Z,30.80
2017-11-20T19:56:44.714Z,33.75
2017-11-20T19:59:12.114Z,33.00
2017-11-20T20:01:39.175Z,34.15
2017-11-20T20:04:07.216Z,34.17
2017-11-20T20:06:35.131Z,28.48
2017-11-20T20:09:02.077Z,31.08
2017-11-20T20:11:30.010Z,34.33
2017-11-20T20:14:03.920Z,31.55
2017-11-20T20:16:38.846Z,29.55
2017-11-20T20:19:05.763Z,35.03
2017-11-20T20:21:33.640Z,38.63
2017-11-20T20:24:01.442Z,37.88
2017-11-20T20:26:28.613Z,37.67
2017-11-20T20:28:55.654Z,35.35
2017-11-20T20:31:22.581Z,38.10
2017-11-20T20:33:50.430Z,37.80
2017-11-20T20:36:17.375Z,36.80
2017-11-20T20:38:45.245Z,36.92
2017-11-20T20:41:13.188Z,37.45
2017-11-20T20:43:40.852Z,39.00
2017-11-20T20:46:08.542Z,35.63
2017-11-20T20:48:35.495Z,36.80
2017-11-20T20:51:02.428Z,38.40
2017-11-20T20:53:29.353Z,39.47
2017-11-20T20:55:57.062Z,39.47
2017-11-20T20:58:26.023Z,43.50
2017-11-20T21:00:52.944Z,38.77
2017-11-20T21:03:22.560Z,41.28
2017-11-20T21:05:49.478Z,41.88
2017-11-20T21:08:16.405Z,41.37
2017-11-20T21:10:44.229Z,39.17
2017-11-20T21:13:11.148Z,46.63
2017-11-20T21:15:38.069Z,36.15
2017-11-20T21:18:05.977Z,40.38
2017-11-20T21:20:32.885Z,38.30
2017-11-20T21:23:01.817Z,39.00
2017-11-20T21:25:28.747Z,39.47
2017-11-20T21:27:57.754Z,38.20
2017-11-20T21:30:24.667Z,43.03
2017-11-20T21:32:52.380Z,36.47
2017-11-20T21:35:19.335Z,43.38
2017-11-20T21:37:47.274Z,41.67
2017-11-20T21:40:14.197Z,46.63
2017-11-20T21:42:41.990Z,40.28
2017-11-20T21:45:09.824Z,39.72
2017-11-20T21:47:37.583Z,44.45
2017-11-20T21:50:04.506Z,42.25
2017-11-20T21:52:32.201Z,44.58
2017-11-20T21:54:59.123Z,43.83
2017-11-20T21:57:26.930Z,40.90
2017-11-20T21:59:54.495Z,45.60
2017-11-20T22:02:21.653Z,44.58
2017-11-20T22:04:48.572Z,44.25
2017-11-20T22:07:15.487Z,43.75
2017-11-20T22:09:42.404Z,48.40
2017-11-20T22:12:09.338Z,46.83
2017-11-20T22:14:36.402Z,42.47
2017-11-20T22:17:03.337Z,42.97
2017-11-20T22:19:30.248Z,41.58
2017-11-20T22:21:57.173Z,46.28
2017-11-20T22:24:24.849Z,44.70
2017-11-20T22:26:51.780Z,49.15
2017-11-20T22:29:19.466Z,44.38
2017-11-20T22:31:46.820Z,49.50
2017-11-20T22:34:13.733Z,46.80
2017-11-20T22:36:41.430Z,47.30
2017-11-20T22:39:08.368Z,46.90
2017-11-20T22:41:35.326Z,46.53
2017-11-20T22:44:02.327Z,46.55
2017-11-20T22:46:30.026Z,45.90
2017-11-20T22:48:57.922Z,40.85
2017-11-20T22:51:24.835Z,44.58
2017-11-20T22:53:52.665Z,44.95
2017-11-20T22:56:20.354Z,42.22
2017-11-20T22:58:47.284Z,44.50
2017-11-20T23:01:14.214Z,44.88
2017-11-20T23:03:41.897Z,48.25
2017-11-20T23:06:08.822Z,44.17
2017-11-20T23:08:36.706Z,46.63
2017-11-20T23:11:03.637Z,45.78
2017-11-20T23:13:31.318Z,45.80
2017-11-20T23:15:59.474Z,45.03
2017-11-20T23:18:26.522Z,45.20
2017-11-20T23:20:54.230Z,48.87
2017-11-20T23:23:21.178Z,42.40
2017-11-20T23:25:48.132Z,40.45
2017-11-20T23:28:15.036Z,43.17
2017-11-20T23:30:41.941Z,43.60
2017-11-20T23:33:08.878Z,48.20
2017-11-20T23:35:35.798Z,46.17
2017-11-20T23:38:03.553Z,45.40
2017-11-20T23:40:30.458Z,42.80
2017-11-20T23:42:58.209Z,46.30
2017-11-20T23:45:25.952Z,46.55
2017-11-20T23:47:52.875Z,47.13
2017-11-20T23:50:19.811Z,48.38
2017-11-20T23:52:46.761Z,45.95
2017-11-20T23:55:13.680Z,43.28
2017-11-20T23:57:40.603Z,46.55
